sensor_id;sensor_type;location;lat;lon;timestamp;temperature;humidity
45066;DHT22;30830;53.704;10.004;2023-05-23T00:01:03;16.00;99.90
45066;DHT22;30830;53.704;10.004;2023-05-23T00:03:31;16.00;99.90
45066;DHT22;30830;53.704;10.004;2023-05-23T00:05:57;16.00;99.90
45066;DHT22;30830;53.704;10.004;2023-05-23T00:08:23;16.00;99.90
45066;DHT22;30830;53.704;10.004;2023-05-23T00:10:49;15.90;99.90
45066;DHT22;30830;53.704;10.004;2023-05-23T00:13:14;15.90;99.90
45066;DHT22;30830;53.704;10.004;2023-05-23T00:15:43;15.90;99.90
45066;DHT22;30830;53.704;10.004;2023-05-23T00:18:09;15.80;99.90
45066;DHT22;30830;53.704;10.004;2023-05-23T00:20:40;15.70;99.90
45066;DHT22;30830;53.704;10.004;2023-05-23T00:23:07;15.70;99.90
45066;DHT22;30830;53.704;10.004;2023-05-23T00:25:34;15.70;99.90
45066;DHT22;30830;53.704;10.004;2023-05-23T00:28:01;15.70;99.90
45066;DHT22;30830;53.704;10.004;2023-05-23T00:30:29;15.70;99.90
45066;DHT22;30830;53.704;10.004;2023-05-23T00:32:55;15.60;99.90
45066;DHT22;30830;53.704;10.004;2023-05-23T00:35:21;15.60;99.90
45066;DHT22;30830;53.704;10.004;2023-05-23T00:37:48;15.60;99.90
45066;DHT22;30830;53.704;10.004;2023-05-23T00:40:19;15.60;99.90
45066;DHT22;30830;53.704;10.004;2023-05-23T00:42:46;15.50;99.90
45066;DHT22;30830;53.704;10.004;2023-05-23T00:45:11;15.50;99.90
45066;DHT22;30830;53.704;10.004;2023-05-23T00:47:43;15.50;99.90
45066;DHT22;30830;53.704;10.004;2023-05-23T00:50:13;15.50;99.90
45066;DHT22;30830;53.704;10.004;2023-05-23T00:52:41;15.40;99.90
45066;DHT22;30830;53.704;10.004;2023-05-23T00:55:07;15.40;99.90
45066;DHT22;30830;53.704;10.004;2023-05-23T00:57:34;15.50;99.90
45066;DHT22;30830;53.704;10.004;2023-05-23T01:00:00;15.50;99.90
45066;DHT22;30830;53.704;10.004;2023-05-23T01:02:26;15.50;99.90
45066;DHT22;30830;53.704;10.004;2023-05-23T01:04:54;15.50;99.90
45066;DHT22;30830;53.704;10.004;2023-05-23T01:07:20;15.40;99.90
45066;DHT22;30830;53.704;10.004;2023-05-23T01:09:46;15.40;99.90
45066;DHT22;30830;53.704;10.004;2023-05-23T01:12:40;15.40;99.90
45066;DHT22;30830;53.704;10.004;2023-05-23T01:15:10;15.40;99.90
45066;DHT22;30830;53.704;10.004;2023-05-23T01:17:58;15.40;99.90
45066;DHT22;30830;53.704;10.004;2023-05-23T01:20:34;15.40;99.90
45066;DHT22;30830;53.704;10.004;2023-05-23T01:23:27;15.40;99.90
45066;DHT22;30830;53.704;10.004;2023-05-23T01:26:11;15.40;99.90
45066;DHT22;30830;53.704;10.004;2023-05-23T01:28:44;15.40;99.90
45066;DHT22;30830;53.704;10.004;2023-05-23T01:31:12;15.40;99.90
45066;DHT22;30830;53.704;10.004;2023-05-23T01:33:39;15.40;99.90
45066;DHT22;30830;53.704;10.004;2023-05-23T01:36:05;15.40;99.90
45066;DHT22;30830;53.704;10.004;2023-05-23T01:38:31;15.40;99.90
45066;DHT22;30830;53.704;10.004;2023-05-23T01:40:57;15.40;99.90
45066;DHT22;30830;53.704;10.004;2023-05-23T01:43:25;15.40;99.90
45066;DHT22;30830;53.704;10.004;2023-05-23T01:45:52;15.40;99.90
45066;DHT22;30830;53.704;10.004;2023-05-23T01:48:20;15.40;99.90
45066;DHT22;30830;53.704;10.004;2023-05-23T01:50:47;15.40;99.90
45066;DHT22;30830;53.704;10.004;2023-05-23T01:53:15;15.40;99.90
45066;DHT22;30830;53.704;10.004;2023-05-23T01:55:41;15.40;99.90
45066;DHT22;30830;53.704;10.004;2023-05-23T01:58:11;15.40;99.90
45066;DHT22;30830;53.704;10.004;2023-05-23T02:00:37;15.40;99.90
45066;DHT22;30830;53.704;10.004;2023-05-23T02:03:03;15.40;99.90
45066;DHT22;30830;53.704;10.004;2023-05-23T02:05:30;15.40;99.90
45066;DHT22;30830;53.704;10.004;2023-05-23T02:07:55;15.40;99.90
45066;DHT22;30830;53.704;10.004;2023-05-23T02:10:22;15.40;99.90
45066;DHT22;30830;53.704;10.004;2023-05-23T02:12:47;15.50;99.90
45066;DHT22;30830;53.704;10.004;2023-05-23T02:15:13;15.50;99.90
45066;DHT22;30830;53.704;10.004;2023-05-23T02:17:39;15.50;99.90
45066;DHT22;30830;53.704;10.004;2023-05-23T02:20:10;15.50;99.90
45066;DHT22;30830;53.704;10.004;2023-05-23T02:22:35;15.50;99.90
45066;DHT22;30830;53.704;10.004;2023-05-23T02:25:01;15.50;99.90
45066;DHT22;30830;53.704;10.004;2023-05-23T02:27:27;15.60;99.90
45066;DHT22;30830;53.704;10.004;2023-05-23T02:29:53;15.60;99.90
45066;DHT22;30830;53.704;10.004;2023-05-23T02:32:18;15.60;99.90
45066;DHT22;30830;53.704;10.004;2023-05-23T02:34:44;15.60;99.90
45066;DHT22;30830;53.704;10.004;2023-05-23T02:37:12;15.60;99.90
45066;DHT22;30830;53.704;10.004;2023-05-23T02:39:37;15.60;99.90
45066;DHT22;30830;53.704;10.004;2023-05-23T02:42:03;15.50;99.90
45066;DHT22;30830;53.704;10.004;2023-05-23T02:44:29;15.40;99.90
45066;DHT22;30830;53.704;10.004;2023-05-23T02:46:54;15.40;99.90
45066;DHT22;30830;53.704;10.004;2023-05-23T02:49:20;15.40;99.90
45066;DHT22;30830;53.704;10.004;2023-05-23T02:51:45;15.30;99.90
45066;DHT22;30830;53.704;10.004;2023-05-23T02:54:12;15.40;99.90
45066;DHT22;30830;53.704;10.004;2023-05-23T02:56:37;15.40;99.90
45066;DHT22;30830;53.704;10.004;2023-05-23T02:59:03;15.40;99.90
45066;DHT22;30830;53.704;10.004;2023-05-23T03:01:28;15.40;99.90
45066;DHT22;30830;53.704;10.004;2023-05-23T03:03:54;15.30;99.90
45066;DHT22;30830;53.704;10.004;2023-05-23T03:06:20;15.10;99.90
45066;DHT22;30830;53.704;10.004;2023-05-23T03:08:46;15.10;99.90
45066;DHT22;30830;53.704;10.004;2023-05-23T03:11:12;15.00;99.90
45066;DHT22;30830;53.704;10.004;2023-05-23T03:13:38;15.00;99.90
45066;DHT22;30830;53.704;10.004;2023-05-23T03:16:03;14.90;99.90
45066;DHT22;30830;53.704;10.004;2023-05-23T03:18:29;14.90;99.90
45066;DHT22;30830;53.704;10.004;2023-05-23T03:20:55;14.90;99.90
45066;DHT22;30830;53.704;10.004;2023-05-23T03:23:20;14.90;99.90
45066;DHT22;30830;53.704;10.004;2023-05-23T03:25:46;14.80;99.90
45066;DHT22;30830;53.704;10.004;2023-05-23T03:28:11;14.80;99.90
45066;DHT22;30830;53.704;10.004;2023-05-23T03:30:37;14.80;99.90
45066;DHT22;30830;53.704;10.004;2023-05-23T03:33:03;14.80;99.90
45066;DHT22;30830;53.704;10.004;2023-05-23T03:35:29;14.80;99.90
45066;DHT22;30830;53.704;10.004;2023-05-23T03:37:54;14.70;99.90
45066;DHT22;30830;53.704;10.004;2023-05-23T03:40:20;14.70;99.90
45066;DHT22;30830;53.704;10.004;2023-05-23T03:42:47;14.70;99.90
45066;DHT22;30830;53.704;10.004;2023-05-23T03:45:14;14.60;99.90
45066;DHT22;30830;53.704;10.004;2023-05-23T03:47:40;14.60;99.90
45066;DHT22;30830;53.704;10.004;2023-05-23T03:50:07;14.60;99.90
45066;DHT22;30830;53.704;10.004;2023-05-23T03:52:33;14.60;99.90
45066;DHT22;30830;53.704;10.004;2023-05-23T03:54:58;14.60;99.90
45066;DHT22;30830;53.704;10.004;2023-05-23T03:57:24;14.60;99.90
45066;DHT22;30830;53.704;10.004;2023-05-23T03:59:49;14.50;99.90
45066;DHT22;30830;53.704;10.004;2023-05-23T04:02:15;14.60;99.90
45066;DHT22;30830;53.704;10.004;2023-05-23T04:04:41;14.60;99.90
45066;DHT22;30830;53.704;10.004;2023-05-23T04:07:06;14.60;99.90
45066;DHT22;30830;53.704;10.004;2023-05-23T04:09:34;14.60;99.90
45066;DHT22;30830;53.704;10.004;2023-05-23T04:11:59;14.60;99.90
45066;DHT22;30830;53.704;10.004;2023-05-23T04:14:25;14.50;99.90
45066;DHT22;30830;53.704;10.004;2023-05-23T04:16:51;14.50;99.90
45066;DHT22;30830;53.704;10.004;2023-05-23T04:19:17;14.50;99.90
45066;DHT22;30830;53.704;10.004;2023-05-23T04:21:43;14.50;99.90
45066;DHT22;30830;53.704;10.004;2023-05-23T04:24:09;14.50;99.90
45066;DHT22;30830;53.704;10.004;2023-05-23T04:26:35;14.50;99.90
45066;DHT22;30830;53.704;10.004;2023-05-23T04:29:02;14.50;99.90
45066;DHT22;30830;53.704;10.004;2023-05-23T04:31:28;14.50;99.90
45066;DHT22;30830;53.704;10.004;2023-05-23T04:33:53;14.50;99.90
45066;DHT22;30830;53.704;10.004;2023-05-23T04:36:19;14.40;99.90
45066;DHT22;30830;53.704;10.004;2023-05-23T04:38:44;14.30;99.90
45066;DHT22;30830;53.704;10.004;2023-05-23T04:41:10;14.30;99.90
45066;DHT22;30830;53.704;10.004;2023-05-23T04:43:35;14.30;99.90
45066;DHT22;30830;53.704;10.004;2023-05-23T04:46:10;14.20;99.90
45066;DHT22;30830;53.704;10.004;2023-05-23T04:48:36;14.20;99.90
45066;DHT22;30830;53.704;10.004;2023-05-23T04:51:03;14.20;99.90
45066;DHT22;30830;53.704;10.004;2023-05-23T04:53:35;14.20;99.90
45066;DHT22;30830;53.704;10.004;2023-05-23T04:56:01;14.20;99.90
45066;DHT22;30830;53.704;10.004;2023-05-23T04:58:27;14.20;99.90
45066;DHT22;30830;53.704;10.004;2023-05-23T05:00:52;14.20;99.90
45066;DHT22;30830;53.704;10.004;2023-05-23T05:03:18;14.20;99.90
45066;DHT22;30830;53.704;10.004;2023-05-23T05:05:44;14.20;99.90
45066;DHT22;30830;53.704;10.004;2023-05-23T05:08:09;14.20;99.90
45066;DHT22;30830;53.704;10.004;2023-05-23T05:10:36;14.20;99.90
45066;DHT22;30830;53.704;10.004;2023-05-23T05:13:02;14.20;99.90
45066;DHT22;30830;53.704;10.004;2023-05-23T05:15:27;14.20;99.90
45066;DHT22;30830;53.704;10.004;2023-05-23T05:17:53;14.20;99.90
45066;DHT22;30830;53.704;10.004;2023-05-23T05:20:19;14.20;99.90
45066;DHT22;30830;53.704;10.004;2023-05-23T05:22:54;14.20;99.90
45066;DHT22;30830;53.704;10.004;2023-05-23T05:25:20;14.20;99.90
45066;DHT22;30830;53.704;10.004;2023-05-23T05:27:46;14.20;99.90
45066;DHT22;30830;53.704;10.004;2023-05-23T05:30:12;14.20;99.90
45066;DHT22;30830;53.704;10.004;2023-05-23T05:32:37;14.20;99.90
45066;DHT22;30830;53.704;10.004;2023-05-23T05:35:03;14.20;99.90
45066;DHT22;30830;53.704;10.004;2023-05-23T05:37:29;14.20;99.90
45066;DHT22;30830;53.704;10.004;2023-05-23T05:39:55;14.20;99.90
45066;DHT22;30830;53.704;10.004;2023-05-23T05:42:21;14.20;99.90
45066;DHT22;30830;53.704;10.004;2023-05-23T05:44:47;14.20;99.90
45066;DHT22;30830;53.704;10.004;2023-05-23T05:47:13;14.20;99.90
45066;DHT22;30830;53.704;10.004;2023-05-23T05:49:39;14.10;99.90
45066;DHT22;30830;53.704;10.004;2023-05-23T05:52:08;14.10;99.90
45066;DHT22;30830;53.704;10.004;2023-05-23T05:54:33;14.10;99.90
45066;DHT22;30830;53.704;10.004;2023-05-23T05:56:59;14.10;99.90
45066;DHT22;30830;53.704;10.004;2023-05-23T05:59:24;14.10;99.90
45066;DHT22;30830;53.704;10.004;2023-05-23T06:01:51;14.00;99.90
45066;DHT22;30830;53.704;10.004;2023-05-23T06:04:16;14.10;99.90
45066;DHT22;30830;53.704;10.004;2023-05-23T06:06:42;14.10;99.90
45066;DHT22;30830;53.704;10.004;2023-05-23T06:09:08;14.10;99.90
45066;DHT22;30830;53.704;10.004;2023-05-23T06:11:34;14.10;99.90
45066;DHT22;30830;53.704;10.004;2023-05-23T06:14:03;14.10;99.90
45066;DHT22;30830;53.704;10.004;2023-05-23T06:16:29;14.00;99.90
45066;DHT22;30830;53.704;10.004;2023-05-23T06:18:54;14.00;99.90
45066;DHT22;30830;53.704;10.004;2023-05-23T06:21:20;14.00;99.90
45066;DHT22;30830;53.704;10.004;2023-05-23T06:23:45;14.00;99.90
45066;DHT22;30830;53.704;10.004;2023-05-23T06:26:11;14.00;99.90
45066;DHT22;30830;53.704;10.004;2023-05-23T06:28:37;13.90;99.90
45066;DHT22;30830;53.704;10.004;2023-05-23T06:31:03;13.90;99.90
45066;DHT22;30830;53.704;10.004;2023-05-23T06:33:29;13.90;99.90
45066;DHT22;30830;53.704;10.004;2023-05-23T06:35:55;13.90;99.90
45066;DHT22;30830;53.704;10.004;2023-05-23T06:38:21;13.90;99.90
45066;DHT22;30830;53.704;10.004;2023-05-23T06:40:47;13.90;99.90
45066;DHT22;30830;53.704;10.004;2023-05-23T06:43:13;13.90;99.90
45066;DHT22;30830;53.704;10.004;2023-05-23T06:45:39;13.90;99.90
45066;DHT22;30830;53.704;10.004;2023-05-23T06:48:05;14.00;99.90
45066;DHT22;30830;53.704;10.004;2023-05-23T06:50:30;14.00;99.90
45066;DHT22;30830;53.704;10.004;2023-05-23T06:52:56;14.00;99.90
45066;DHT22;30830;53.704;10.004;2023-05-23T06:55:22;13.90;99.90
45066;DHT22;30830;53.704;10.004;2023-05-23T06:57:48;13.80;99.90
45066;DHT22;30830;53.704;10.004;2023-05-23T07:00:17;13.80;99.90
45066;DHT22;30830;53.704;10.004;2023-05-23T07:02:42;13.80;99.90
45066;DHT22;30830;53.704;10.004;2023-05-23T07:05:10;13.80;99.90
45066;DHT22;30830;53.704;10.004;2023-05-23T07:07:36;13.70;99.90
45066;DHT22;30830;53.704;10.004;2023-05-23T07:10:02;13.70;99.90
45066;DHT22;30830;53.704;10.004;2023-05-23T07:12:27;13.70;99.90
45066;DHT22;30830;53.704;10.004;2023-05-23T07:14:53;13.70;99.90
45066;DHT22;30830;53.704;10.004;2023-05-23T07:17:18;13.70;99.90
45066;DHT22;30830;53.704;10.004;2023-05-23T07:19:44;13.70;99.90
45066;DHT22;30830;53.704;10.004;2023-05-23T07:22:10;13.70;99.90
45066;DHT22;30830;53.704;10.004;2023-05-23T07:24:35;13.70;99.90
45066;DHT22;30830;53.704;10.004;2023-05-23T07:27:01;13.60;99.90
45066;DHT22;30830;53.704;10.004;2023-05-23T07:29:27;13.60;99.90
45066;DHT22;30830;53.704;10.004;2023-05-23T07:31:52;13.70;99.90
45066;DHT22;30830;53.704;10.004;2023-05-23T07:34:18;13.80;99.90
45066;DHT22;30830;53.704;10.004;2023-05-23T07:36:43;13.80;99.90
45066;DHT22;30830;53.704;10.004;2023-05-23T07:39:09;13.80;99.90
45066;DHT22;30830;53.704;10.004;2023-05-23T07:41:35;13.80;99.90
45066;DHT22;30830;53.704;10.004;2023-05-23T07:44:00;13.90;99.90
45066;DHT22;30830;53.704;10.004;2023-05-23T07:46:26;14.00;99.90
45066;DHT22;30830;53.704;10.004;2023-05-23T07:48:51;14.00;99.90
45066;DHT22;30830;53.704;10.004;2023-05-23T07:51:17;14.00;99.90
45066;DHT22;30830;53.704;10.004;2023-05-23T07:53:45;14.10;99.90
45066;DHT22;30830;53.704;10.004;2023-05-23T07:56:11;14.10;99.90
45066;DHT22;30830;53.704;10.004;2023-05-23T07:58:36;14.10;99.90
45066;DHT22;30830;53.704;10.004;2023-05-23T08:01:02;14.10;99.90
45066;DHT22;30830;53.704;10.004;2023-05-23T08:03:28;14.20;99.90
45066;DHT22;30830;53.704;10.004;2023-05-23T08:05:53;14.20;99.90
45066;DHT22;30830;53.704;10.004;2023-05-23T08:08:20;14.20;99.90
45066;DHT22;30830;53.704;10.004;2023-05-23T08:10:45;14.20;99.90
45066;DHT22;30830;53.704;10.004;2023-05-23T08:13:11;14.10;99.90
45066;DHT22;30830;53.704;10.004;2023-05-23T08:15:37;14.10;99.90
45066;DHT22;30830;53.704;10.004;2023-05-23T08:18:03;14.10;99.90
45066;DHT22;30830;53.704;10.004;2023-05-23T08:20:29;14.00;99.90
45066;DHT22;30830;53.704;10.004;2023-05-23T08:22:59;14.10;99.90
45066;DHT22;30830;53.704;10.004;2023-05-23T08:25:26;14.00;99.90
45066;DHT22;30830;53.704;10.004;2023-05-23T08:27:59;14.00;99.90
45066;DHT22;30830;53.704;10.004;2023-05-23T08:30:26;14.10;99.90
45066;DHT22;30830;53.704;10.004;2023-05-23T08:32:53;14.00;99.90
45066;DHT22;30830;53.704;10.004;2023-05-23T08:35:20;14.10;99.90
45066;DHT22;30830;53.704;10.004;2023-05-23T08:37:46;14.10;99.90
45066;DHT22;30830;53.704;10.004;2023-05-23T08:40:21;14.00;99.90
45066;DHT22;30830;53.704;10.004;2023-05-23T08:42:48;13.90;99.90
45066;DHT22;30830;53.704;10.004;2023-05-23T08:45:14;13.80;99.90
45066;DHT22;30830;53.704;10.004;2023-05-23T08:47:44;13.70;99.90
45066;DHT22;30830;53.704;10.004;2023-05-23T08:50:12;13.60;99.90
45066;DHT22;30830;53.704;10.004;2023-05-23T08:52:43;13.60;99.90
45066;DHT22;30830;53.704;10.004;2023-05-23T08:55:12;13.60;99.90
45066;DHT22;30830;53.704;10.004;2023-05-23T08:57:38;13.50;99.90
45066;DHT22;30830;53.704;10.004;2023-05-23T09:00:11;13.40;99.90
45066;DHT22;30830;53.704;10.004;2023-05-23T09:02:41;13.30;99.90
45066;DHT22;30830;53.704;10.004;2023-05-23T09:05:07;13.30;99.90
45066;DHT22;30830;53.704;10.004;2023-05-23T09:07:34;13.30;99.90
45066;DHT22;30830;53.704;10.004;2023-05-23T09:10:00;13.30;99.90
45066;DHT22;30830;53.704;10.004;2023-05-23T09:12:26;13.20;99.90
45066;DHT22;30830;53.704;10.004;2023-05-23T09:14:51;13.30;99.90
45066;DHT22;30830;53.704;10.004;2023-05-23T09:17:20;13.10;99.90
45066;DHT22;30830;53.704;10.004;2023-05-23T09:19:46;13.00;99.90
45066;DHT22;30830;53.704;10.004;2023-05-23T09:22:12;12.90;99.90
45066;DHT22;30830;53.704;10.004;2023-05-23T09:24:38;12.80;99.90
45066;DHT22;30830;53.704;10.004;2023-05-23T09:27:04;12.70;99.90
45066;DHT22;30830;53.704;10.004;2023-05-23T09:29:31;12.70;99.90
45066;DHT22;30830;53.704;10.004;2023-05-23T09:32:10;12.60;99.90
45066;DHT22;30830;53.704;10.004;2023-05-23T09:34:40;12.60;99.90
45066;DHT22;30830;53.704;10.004;2023-05-23T09:37:06;12.60;99.90
45066;DHT22;30830;53.704;10.004;2023-05-23T09:39:36;12.50;99.90
45066;DHT22;30830;53.704;10.004;2023-05-23T09:42:02;12.50;99.90
45066;DHT22;30830;53.704;10.004;2023-05-23T09:44:27;12.40;99.90
45066;DHT22;30830;53.704;10.004;2023-05-23T09:46:53;12.50;99.90
45066;DHT22;30830;53.704;10.004;2023-05-23T09:49:18;12.50;99.90
45066;DHT22;30830;53.704;10.004;2023-05-23T09:51:56;12.30;99.90
45066;DHT22;30830;53.704;10.004;2023-05-23T09:54:22;12.30;99.90
45066;DHT22;30830;53.704;10.004;2023-05-23T09:56:48;12.30;99.90
45066;DHT22;30830;53.704;10.004;2023-05-23T09:59:17;12.30;99.90
45066;DHT22;30830;53.704;10.004;2023-05-23T10:01:50;12.30;99.90
45066;DHT22;30830;53.704;10.004;2023-05-23T10:04:20;12.30;99.90
45066;DHT22;30830;53.704;10.004;2023-05-23T10:06:55;12.30;99.90
45066;DHT22;30830;53.704;10.004;2023-05-23T10:09:26;12.30;99.90
45066;DHT22;30830;53.704;10.004;2023-05-23T10:14:27;12.30;99.90
45066;DHT22;30830;53.704;10.004;2023-05-23T10:17:06;12.30;99.90
45066;DHT22;30830;53.704;10.004;2023-05-23T10:19:47;12.30;99.90
45066;DHT22;30830;53.704;10.004;2023-05-23T10:22:16;12.30;99.90
45066;DHT22;30830;53.704;10.004;2023-05-23T10:24:44;12.30;99.90
45066;DHT22;30830;53.704;10.004;2023-05-23T10:27:10;12.40;99.90
45066;DHT22;30830;53.704;10.004;2023-05-23T10:29:36;12.30;99.90
45066;DHT22;30830;53.704;10.004;2023-05-23T10:32:03;12.40;99.90
45066;DHT22;30830;53.704;10.004;2023-05-23T10:37:48;12.50;99.90
45066;DHT22;30830;53.704;10.004;2023-05-23T10:40:30;12.50;99.90
45066;DHT22;30830;53.704;10.004;2023-05-23T10:43:06;12.50;99.90
45066;DHT22;30830;53.704;10.004;2023-05-23T10:45:39;12.50;99.90
45066;DHT22;30830;53.704;10.004;2023-05-23T10:48:23;12.60;99.90
45066;DHT22;30830;53.704;10.004;2023-05-23T10:51:06;12.60;99.90
45066;DHT22;30830;53.704;10.004;2023-05-23T10:53:34;12.60;99.90
45066;DHT22;30830;53.704;10.004;2023-05-23T10:56:00;12.60;99.90
45066;DHT22;30830;53.704;10.004;2023-05-23T10:58:28;12.60;99.90
45066;DHT22;30830;53.704;10.004;2023-05-23T11:00:56;12.70;99.90
45066;DHT22;30830;53.704;10.004;2023-05-23T11:03:51;12.80;99.90
45066;DHT22;30830;53.704;10.004;2023-05-23T11:06:42;12.80;99.90
45066;DHT22;30830;53.704;10.004;2023-05-23T11:09:16;12.80;99.90
45066;DHT22;30830;53.704;10.004;2023-05-23T11:11:54;12.90;99.90
45066;DHT22;30830;53.704;10.004;2023-05-23T11:17:29;13.00;99.90
45066;DHT22;30830;53.704;10.004;2023-05-23T11:22:28;13.30;99.90
45066;DHT22;30830;53.704;10.004;2023-05-23T11:24:58;13.40;99.90
45066;DHT22;30830;53.704;10.004;2023-05-23T11:32:35;13.50;99.90
45066;DHT22;30830;53.704;10.004;2023-05-23T11:35:03;13.60;99.90
45066;DHT22;30830;53.704;10.004;2023-05-23T11:37:30;13.80;99.90
45066;DHT22;30830;53.704;10.004;2023-05-23T11:39:57;14.00;99.90
45066;DHT22;30830;53.704;10.004;2023-05-23T11:42:23;14.10;99.90
45066;DHT22;30830;53.704;10.004;2023-05-23T11:44:49;14.40;99.90
45066;DHT22;30830;53.704;10.004;2023-05-23T11:47:16;14.70;99.90
45066;DHT22;30830;53.704;10.004;2023-05-23T11:49:44;14.80;99.90
45066;DHT22;30830;53.704;10.004;2023-05-23T11:52:13;14.70;99.90
45066;DHT22;30830;53.704;10.004;2023-05-23T11:54:43;14.70;99.90
45066;DHT22;30830;53.704;10.004;2023-05-23T11:57:09;14.90;99.90
45066;DHT22;30830;53.704;10.004;2023-05-23T11:59:35;15.10;99.90
45066;DHT22;30830;53.704;10.004;2023-05-23T12:02:04;15.00;99.90
45066;DHT22;30830;53.704;10.004;2023-05-23T12:04:30;14.90;99.90
45066;DHT22;30830;53.704;10.004;2023-05-23T12:06:55;14.90;99.90
45066;DHT22;30830;53.704;10.004;2023-05-23T12:09:21;14.90;99.90
45066;DHT22;30830;53.704;10.004;2023-05-23T12:11:48;15.00;99.90
45066;DHT22;30830;53.704;10.004;2023-05-23T12:14:15;14.90;99.90
45066;DHT22;30830;53.704;10.004;2023-05-23T12:16:43;15.10;99.90
45066;DHT22;30830;53.704;10.004;2023-05-23T12:19:11;15.20;99.90
45066;DHT22;30830;53.704;10.004;2023-05-23T12:21:41;15.40;99.90
45066;DHT22;30830;53.704;10.004;2023-05-23T12:24:20;15.60;99.90
45066;DHT22;30830;53.704;10.004;2023-05-23T12:26:51;15.50;99.90
45066;DHT22;30830;53.704;10.004;2023-05-23T12:29:33;15.30;99.90
45066;DHT22;30830;53.704;10.004;2023-05-23T12:32:00;15.20;99.90
45066;DHT22;30830;53.704;10.004;2023-05-23T12:34:27;15.30;99.90
45066;DHT22;30830;53.704;10.004;2023-05-23T12:37:00;15.40;99.90
45066;DHT22;30830;53.704;10.004;2023-05-23T12:39:28;15.40;99.90
45066;DHT22;30830;53.704;10.004;2023-05-23T12:42:07;15.40;99.90
45066;DHT22;30830;53.704;10.004;2023-05-23T12:44:33;15.50;99.90
45066;DHT22;30830;53.704;10.004;2023-05-23T12:46:59;15.40;99.90
45066;DHT22;30830;53.704;10.004;2023-05-23T12:49:25;15.30;99.90
45066;DHT22;30830;53.704;10.004;2023-05-23T12:51:50;15.30;99.90
45066;DHT22;30830;53.704;10.004;2023-05-23T12:54:16;15.20;99.90
45066;DHT22;30830;53.704;10.004;2023-05-23T12:56:42;15.10;99.90
45066;DHT22;30830;53.704;10.004;2023-05-23T12:59:07;15.10;99.90
45066;DHT22;30830;53.704;10.004;2023-05-23T13:01:33;14.90;99.90
45066;DHT22;30830;53.704;10.004;2023-05-23T13:03:59;14.80;99.90
45066;DHT22;30830;53.704;10.004;2023-05-23T13:06:25;14.90;99.90
45066;DHT22;30830;53.704;10.004;2023-05-23T13:08:51;14.70;99.90
45066;DHT22;30830;53.704;10.004;2023-05-23T13:11:21;14.70;99.90
45066;DHT22;30830;53.704;10.004;2023-05-23T13:13:48;14.80;99.90
45066;DHT22;30830;53.704;10.004;2023-05-23T13:16:13;14.80;99.90
45066;DHT22;30830;53.704;10.004;2023-05-23T13:18:40;14.80;99.90
45066;DHT22;30830;53.704;10.004;2023-05-23T13:21:05;14.90;99.90
45066;DHT22;30830;53.704;10.004;2023-05-23T13:23:31;14.90;99.90
45066;DHT22;30830;53.704;10.004;2023-05-23T13:25:57;14.70;99.90
45066;DHT22;30830;53.704;10.004;2023-05-23T13:28:23;14.50;99.90
45066;DHT22;30830;53.704;10.004;2023-05-23T13:30:49;14.40;99.90
45066;DHT22;30830;53.704;10.004;2023-05-23T13:33:15;14.50;99.90
45066;DHT22;30830;53.704;10.004;2023-05-23T13:35:41;14.60;99.90
45066;DHT22;30830;53.704;10.004;2023-05-23T13:38:07;14.40;99.90
45066;DHT22;30830;53.704;10.004;2023-05-23T13:40:32;14.50;99.90
45066;DHT22;30830;53.704;10.004;2023-05-23T13:42:58;14.50;99.90
45066;DHT22;30830;53.704;10.004;2023-05-23T13:45:24;14.50;99.90
45066;DHT22;30830;53.704;10.004;2023-05-23T13:47:49;14.60;99.90
45066;DHT22;30830;53.704;10.004;2023-05-23T13:50:15;14.50;99.90
45066;DHT22;30830;53.704;10.004;2023-05-23T13:52:41;14.50;99.90
45066;DHT22;30830;53.704;10.004;2023-05-23T13:55:07;14.50;99.90
45066;DHT22;30830;53.704;10.004;2023-05-23T13:57:33;14.60;99.90
45066;DHT22;30830;53.704;10.004;2023-05-23T13:59:58;14.60;99.90
45066;DHT22;30830;53.704;10.004;2023-05-23T14:02:24;14.70;99.90
45066;DHT22;30830;53.704;10.004;2023-05-23T14:04:51;14.60;99.90
45066;DHT22;30830;53.704;10.004;2023-05-23T14:07:17;14.60;99.90
45066;DHT22;30830;53.704;10.004;2023-05-23T14:09:43;14.60;99.90
45066;DHT22;30830;53.704;10.004;2023-05-23T14:12:09;14.30;99.90
45066;DHT22;30830;53.704;10.004;2023-05-23T14:14:35;14.30;99.90
45066;DHT22;30830;53.704;10.004;2023-05-23T14:17:01;14.30;99.90
45066;DHT22;30830;53.704;10.004;2023-05-23T14:19:27;14.30;99.90
45066;DHT22;30830;53.704;10.004;2023-05-23T14:21:53;14.20;99.90
45066;DHT22;30830;53.704;10.004;2023-05-23T14:24:18;14.20;99.90
45066;DHT22;30830;53.704;10.004;2023-05-23T14:26:44;14.40;99.90
45066;DHT22;30830;53.704;10.004;2023-05-23T14:29:11;14.60;99.90
45066;DHT22;30830;53.704;10.004;2023-05-23T14:31:36;14.70;99.90
45066;DHT22;30830;53.704;10.004;2023-05-23T14:34:02;14.60;99.90
45066;DHT22;30830;53.704;10.004;2023-05-23T14:36:27;14.70;99.90
45066;DHT22;30830;53.704;10.004;2023-05-23T14:38:53;14.60;99.90
45066;DHT22;30830;53.704;10.004;2023-05-23T14:41:19;14.50;99.90
45066;DHT22;30830;53.704;10.004;2023-05-23T14:43:45;14.30;99.90
45066;DHT22;30830;53.704;10.004;2023-05-23T14:46:11;14.00;99.90
45066;DHT22;30830;53.704;10.004;2023-05-23T14:48:37;14.00;99.90
45066;DHT22;30830;53.704;10.004;2023-05-23T14:51:03;14.00;99.90
45066;DHT22;30830;53.704;10.004;2023-05-23T14:53:29;14.00;99.90
45066;DHT22;30830;53.704;10.004;2023-05-23T14:55:55;14.10;99.90
45066;DHT22;30830;53.704;10.004;2023-05-23T14:58:22;14.00;99.90
45066;DHT22;30830;53.704;10.004;2023-05-23T15:00:48;14.10;99.90
45066;DHT22;30830;53.704;10.004;2023-05-23T15:03:14;14.00;99.90
45066;DHT22;30830;53.704;10.004;2023-05-23T15:05:40;14.00;99.90
45066;DHT22;30830;53.704;10.004;2023-05-23T15:08:05;14.00;99.90
45066;DHT22;30830;53.704;10.004;2023-05-23T15:10:31;13.90;99.90
45066;DHT22;30830;53.704;10.004;2023-05-23T15:12:57;13.90;99.90
45066;DHT22;30830;53.704;10.004;2023-05-23T15:15:22;13.80;99.90
45066;DHT22;30830;53.704;10.004;2023-05-23T15:17:49;13.80;99.90
45066;DHT22;30830;53.704;10.004;2023-05-23T15:20:16;13.80;99.90
45066;DHT22;30830;53.704;10.004;2023-05-23T15:22:42;13.90;99.90
45066;DHT22;30830;53.704;10.004;2023-05-23T15:25:08;14.00;99.90
45066;DHT22;30830;53.704;10.004;2023-05-23T15:27:34;14.10;99.90
45066;DHT22;30830;53.704;10.004;2023-05-23T15:30:00;14.00;99.90
45066;DHT22;30830;53.704;10.004;2023-05-23T15:32:25;13.90;99.90